sensor_id;sensor_type;location;lat;lon;timestamp;P1;durP1;ratioP1;P2;durP2;ratioP2
2686;SDS011;1353;51.386;7.028;2022-12-07T00:01:05;54.70;;;31.85;;
2686;SDS011;1353;51.386;7.028;2022-12-07T00:03:33;50.30;;;30.27;;
2686;SDS011;1353;51.386;7.028;2022-12-07T00:06:00;55.00;;;33.35;;
2686;SDS011;1353;51.386;7.028;2022-12-07T00:08:28;51.08;;;33.08;;
2686;SDS011;1353;51.386;7.028;2022-12-07T00:10:58;50.22;;;34.00;;
2686;SDS011;1353;51.386;7.028;2022-12-07T00:13:27;49.42;;;32.80;;
2686;SDS011;1353;51.386;7.028;2022-12-07T00:15:55;51.20;;;34.47;;
2686;SDS011;1353;51.386;7.028;2022-12-07T00:18:22;45.67;;;31.50;;
2686;SDS011;1353;51.386;7.028;2022-12-07T00:20:48;50.90;;;34.85;;
2686;SDS011;1353;51.386;7.028;2022-12-07T00:23:15;51.15;;;32.45;;
2686;SDS011;1353;51.386;7.028;2022-12-07T00:25:42;53.20;;;32.17;;
2686;SDS011;1353;51.386;7.028;2022-12-07T00:28:08;49.50;;;32.65;;
2686;SDS011;1353;51.386;7.028;2022-12-07T00:30:35;48.88;;;32.22;;
2686;SDS011;1353;51.386;7.028;2022-12-07T00:33:03;50.40;;;31.65;;
2686;SDS011;1353;51.386;7.028;2022-12-07T00:35:30;50.78;;;33.08;;
2686;SDS011;1353;51.386;7.028;2022-12-07T00:37:57;44.08;;;30.98;;
2686;SDS011;1353;51.386;7.028;2022-12-07T00:40:24;48.88;;;31.45;;
2686;SDS011;1353;51.386;7.028;2022-12-07T00:42:50;50.10;;;31.43;;
2686;SDS011;1353;51.386;7.028;2022-12-07T00:45:17;53.47;;;31.88;;
2686;SDS011;1353;51.386;7.028;2022-12-07T00:47:44;44.85;;;30.52;;
2686;SDS011;1353;51.386;7.028;2022-12-07T00:50:12;46.47;;;30.90;;
2686;SDS011;1353;51.386;7.028;2022-12-07T00:52:38;57.67;;;32.35;;
2686;SDS011;1353;51.386;7.028;2022-12-07T00:55:05;45.83;;;31.67;;
2686;SDS011;1353;51.386;7.028;2022-12-07T00:57:33;50.42;;;33.10;;
2686;SDS011;1353;51.386;7.028;2022-12-07T00:59:59;45.97;;;30.00;;
2686;SDS011;1353;51.386;7.028;2022-12-07T01:02:26;43.65;;;31.27;;
2686;SDS011;1353;51.386;7.028;2022-12-07T01:04:53;47.55;;;31.50;;
2686;SDS011;1353;51.386;7.028;2022-12-07T01:07:21;45.93;;;31.37;;
2686;SDS011;1353;51.386;7.028;2022-12-07T01:09:47;43.70;;;30.92;;
2686;SDS011;1353;51.386;7.028;2022-12-07T01:12:14;41.20;;;27.90;;
2686;SDS011;1353;51.386;7.028;2022-12-07T01:14:41;42.30;;;30.38;;
2686;SDS011;1353;51.386;7.028;2022-12-07T01:17:08;47.42;;;31.25;;
2686;SDS011;1353;51.386;7.028;2022-12-07T01:19:34;44.67;;;29.15;;
2686;SDS011;1353;51.386;7.028;2022-12-07T01:22:01;41.88;;;28.45;;
2686;SDS011;1353;51.386;7.028;2022-12-07T01:24:29;43.45;;;29.80;;
2686;SDS011;1353;51.386;7.028;2022-12-07T01:26:56;48.15;;;30.73;;
2686;SDS011;1353;51.386;7.028;2022-12-07T01:29:23;44.03;;;30.98;;
2686;SDS011;1353;51.386;7.028;2022-12-07T01:31:49;45.55;;;30.42;;
2686;SDS011;1353;51.386;7.028;2022-12-07T01:34:16;49.08;;;30.30;;
2686;SDS011;1353;51.386;7.028;2022-12-07T01:36:43;41.53;;;30.13;;
2686;SDS011;1353;51.386;7.028;2022-12-07T01:39:09;43.70;;;29.80;;
2686;SDS011;1353;51.386;7.028;2022-12-07T01:41:38;50.25;;;33.63;;
2686;SDS011;1353;51.386;7.028;2022-12-07T01:44:19;49.33;;;30.23;;
2686;SDS011;1353;51.386;7.028;2022-12-07T01:46:48;46.97;;;30.70;;
2686;SDS011;1353;51.386;7.028;2022-12-07T01:49:17;42.30;;;28.33;;
2686;SDS011;1353;51.386;7.028;2022-12-07T01:51:49;48.22;;;29.95;;
2686;SDS011;1353;51.386;7.028;2022-12-07T01:54:18;53.35;;;32.05;;
2686;SDS011;1353;51.386;7.028;2022-12-07T01:56:50;58.10;;;33.00;;
2686;SDS011;1353;51.386;7.028;2022-12-07T01:59:19;45.15;;;28.10;;
2686;SDS011;1353;51.386;7.028;2022-12-07T02:01:50;48.10;;;30.73;;
2686;SDS011;1353;51.386;7.028;2022-12-07T02:04:17;45.85;;;32.08;;
2686;SDS011;1353;51.386;7.028;2022-12-07T02:06:44;43.75;;;30.50;;
2686;SDS011;1353;51.386;7.028;2022-12-07T02:09:11;43.90;;;29.35;;
2686;SDS011;1353;51.386;7.028;2022-12-07T02:11:38;48.95;;;31.02;;
2686;SDS011;1353;51.386;7.028;2022-12-07T02:14:07;44.75;;;29.83;;
2686;SDS011;1353;51.386;7.028;2022-12-07T02:16:35;47.05;;;31.83;;
2686;SDS011;1353;51.386;7.028;2022-12-07T02:19:31;49.20;;;29.13;;
2686;SDS011;1353;51.386;7.028;2022-12-07T02:22:19;51.03;;;32.58;;
2686;SDS011;1353;51.386;7.028;2022-12-07T02:25:08;48.85;;;31.23;;
2686;SDS011;1353;51.386;7.028;2022-12-07T02:27:44;50.13;;;30.98;;
2686;SDS011;1353;51.386;7.028;2022-12-07T02:30:13;46.05;;;29.73;;
2686;SDS011;1353;51.386;7.028;2022-12-07T02:32:43;47.70;;;29.52;;
2686;SDS011;1353;51.386;7.028;2022-12-07T02:35:17;47.42;;;30.83;;
2686;SDS011;1353;51.386;7.028;2022-12-07T02:37:48;51.00;;;30.77;;
2686;SDS011;1353;51.386;7.028;2022-12-07T02:40:22;53.97;;;30.57;;
2686;SDS011;1353;51.386;7.028;2022-12-07T02:42:55;44.55;;;30.85;;
2686;SDS011;1353;51.386;7.028;2022-12-07T02:45:28;48.15;;;29.67;;
2686;SDS011;1353;51.386;7.028;2022-12-07T02:47:57;42.72;;;29.50;;
2686;SDS011;1353;51.386;7.028;2022-12-07T02:50:25;49.78;;;30.52;;
2686;SDS011;1353;51.386;7.028;2022-12-07T02:52:53;61.70;;;31.63;;
2686;SDS011;1353;51.386;7.028;2022-12-07T02:55:22;47.83;;;31.20;;
2686;SDS011;1353;51.386;7.028;2022-12-07T02:58:05;48.63;;;31.08;;
2686;SDS011;1353;51.386;7.028;2022-12-07T03:00:51;50.85;;;30.15;;
2686;SDS011;1353;51.386;7.028;2022-12-07T03:03:24;50.72;;;31.15;;
2686;SDS011;1353;51.386;7.028;2022-12-07T03:05:55;54.17;;;30.90;;
2686;SDS011;1353;51.386;7.028;2022-12-07T03:08:31;45.75;;;29.05;;
2686;SDS011;1353;51.386;7.028;2022-12-07T03:11:05;43.10;;;28.15;;
2686;SDS011;1353;51.386;7.028;2022-12-07T03:13:36;46.45;;;31.52;;
2686;SDS011;1353;51.386;7.028;2022-12-07T03:16:10;47.17;;;30.02;;
2686;SDS011;1353;51.386;7.028;2022-12-07T03:18:41;52.72;;;33.17;;
2686;SDS011;1353;51.386;7.028;2022-12-07T03:21:14;46.50;;;30.17;;
2686;SDS011;1353;51.386;7.028;2022-12-07T03:23:44;48.45;;;30.38;;
2686;SDS011;1353;51.386;7.028;2022-12-07T03:26:15;53.85;;;31.13;;
2686;SDS011;1353;51.386;7.028;2022-12-07T03:28:45;48.70;;;29.77;;
2686;SDS011;1353;51.386;7.028;2022-12-07T03:31:17;49.25;;;30.23;;
2686;SDS011;1353;51.386;7.028;2022-12-07T03:33:48;50.63;;;29.80;;
2686;SDS011;1353;51.386;7.028;2022-12-07T03:36:19;44.33;;;30.17;;
2686;SDS011;1353;51.386;7.028;2022-12-07T03:38:50;51.55;;;30.20;;
2686;SDS011;1353;51.386;7.028;2022-12-07T03:41:24;52.50;;;29.10;;
2686;SDS011;1353;51.386;7.028;2022-12-07T03:43:53;49.75;;;30.45;;
2686;SDS011;1353;51.386;7.028;2022-12-07T03:46:27;87.47;;;34.47;;
2686;SDS011;1353;51.386;7.028;2022-12-07T03:49:05;47.15;;;30.13;;
2686;SDS011;1353;51.386;7.028;2022-12-07T03:51:37;50.95;;;29.92;;
2686;SDS011;1353;51.386;7.028;2022-12-07T03:54:09;48.65;;;30.35;;
2686;SDS011;1353;51.386;7.028;2022-12-07T03:56:39;47.17;;;31.38;;
2686;SDS011;1353;51.386;7.028;2022-12-07T03:59:09;52.88;;;28.63;;
2686;SDS011;1353;51.386;7.028;2022-12-07T04:01:38;52.50;;;30.23;;
2686;SDS011;1353;51.386;7.028;2022-12-07T04:04:08;46.03;;;27.35;;
2686;SDS011;1353;51.386;7.028;2022-12-07T04:06:34;50.47;;;30.70;;
2686;SDS011;1353;51.386;7.028;2022-12-07T04:09:01;46.90;;;29.48;;
2686;SDS011;1353;51.386;7.028;2022-12-07T04:11:28;52.45;;;30.15;;
2686;SDS011;1353;51.386;7.028;2022-12-07T04:13:55;52.35;;;28.70;;
2686;SDS011;1353;51.386;7.028;2022-12-07T04:16:40;45.25;;;28.27;;
2686;SDS011;1353;51.386;7.028;2022-12-07T04:19:07;46.70;;;28.60;;
2686;SDS011;1353;51.386;7.028;2022-12-07T04:21:34;52.35;;;31.15;;
2686;SDS011;1353;51.386;7.028;2022-12-07T04:24:01;57.05;;;29.45;;
2686;SDS011;1353;51.386;7.028;2022-12-07T04:26:27;45.63;;;29.05;;
2686;SDS011;1353;51.386;7.028;2022-12-07T04:28:54;45.78;;;29.33;;
2686;SDS011;1353;51.386;7.028;2022-12-07T04:31:21;44.60;;;28.75;;
2686;SDS011;1353;51.386;7.028;2022-12-07T04:33:49;51.28;;;28.77;;
2686;SDS011;1353;51.386;7.028;2022-12-07T04:36:16;44.28;;;26.65;;
2686;SDS011;1353;51.386;7.028;2022-12-07T04:38:44;53.20;;;31.75;;
2686;SDS011;1353;51.386;7.028;2022-12-07T04:41:11;47.92;;;27.10;;
2686;SDS011;1353;51.386;7.028;2022-12-07T04:43:38;44.65;;;28.45;;
2686;SDS011;1353;51.386;7.028;2022-12-07T04:46:05;46.67;;;28.17;;
2686;SDS011;1353;51.386;7.028;2022-12-07T04:48:32;47.47;;;28.05;;
2686;SDS011;1353;51.386;7.028;2022-12-07T04:51:01;43.92;;;25.80;;
2686;SDS011;1353;51.386;7.028;2022-12-07T04:53:29;46.45;;;27.10;;
2686;SDS011;1353;51.386;7.028;2022-12-07T04:55:56;44.65;;;27.60;;
2686;SDS011;1353;51.386;7.028;2022-12-07T04:58:23;43.90;;;27.85;;
2686;SDS011;1353;51.386;7.028;2022-12-07T05:00:49;42.50;;;27.15;;
2686;SDS011;1353;51.386;7.028;2022-12-07T05:05:48;43.03;;;25.30;;
2686;SDS011;1353;51.386;7.028;2022-12-07T05:08:16;56.25;;;29.25;;
2686;SDS011;1353;51.386;7.028;2022-12-07T05:10:42;48.15;;;26.38;;
2686;SDS011;1353;51.386;7.028;2022-12-07T05:13:09;40.28;;;26.00;;
2686;SDS011;1353;51.386;7.028;2022-12-07T05:15:36;44.47;;;28.05;;
2686;SDS011;1353;51.386;7.028;2022-12-07T05:18:02;40.63;;;25.65;;
2686;SDS011;1353;51.386;7.028;2022-12-07T05:20:29;47.13;;;27.38;;
2686;SDS011;1353;51.386;7.028;2022-12-07T05:22:56;53.20;;;28.67;;
2686;SDS011;1353;51.386;7.028;2022-12-07T05:25:25;41.25;;;26.45;;
2686;SDS011;1353;51.386;7.028;2022-12-07T05:27:51;44.90;;;26.10;;
2686;SDS011;1353;51.386;7.028;2022-12-07T05:30:18;45.45;;;26.35;;
2686;SDS011;1353;51.386;7.028;2022-12-07T05:32:45;49.65;;;29.42;;
2686;SDS011;1353;51.386;7.028;2022-12-07T05:35:12;51.72;;;29.35;;
2686;SDS011;1353;51.386;7.028;2022-12-07T05:37:38;45.45;;;26.63;;
2686;SDS011;1353;51.386;7.028;2022-12-07T05:40:05;46.22;;;27.08;;
2686;SDS011;1353;51.386;7.028;2022-12-07T05:42:34;41.67;;;25.83;;
2686;SDS011;1353;51.386;7.028;2022-12-07T05:45:01;52.03;;;26.98;;
2686;SDS011;1353;51.386;7.028;2022-12-07T05:47:28;47.90;;;27.13;;
2686;SDS011;1353;51.386;7.028;2022-12-07T05:49:54;45.83;;;26.60;;
2686;SDS011;1353;51.386;7.028;2022-12-07T05:52:21;55.10;;;25.38;;
2686;SDS011;1353;51.386;7.028;2022-12-07T05:54:48;40.67;;;26.05;;
2686;SDS011;1353;51.386;7.028;2022-12-07T05:57:15;40.90;;;24.65;;
2686;SDS011;1353;51.386;7.028;2022-12-07T05:59:43;40.78;;;25.90;;
2686;SDS011;1353;51.386;7.028;2022-12-07T06:02:10;43.85;;;25.95;;
2686;SDS011;1353;51.386;7.028;2022-12-07T06:04:38;39.47;;;24.77;;
2686;SDS011;1353;51.386;7.028;2022-12-07T06:07:06;43.70;;;26.65;;
2686;SDS011;1353;51.386;7.028;2022-12-07T06:09:34;37.38;;;24.38;;
2686;SDS011;1353;51.386;7.028;2022-12-07T06:12:01;38.97;;;24.95;;
2686;SDS011;1353;51.386;7.028;2022-12-07T06:14:47;36.35;;;22.67;;
2686;SDS011;1353;51.386;7.028;2022-12-07T06:17:14;35.17;;;23.67;;
2686;SDS011;1353;51.386;7.028;2022-12-07T06:19:41;35.60;;;23.65;;
2686;SDS011;1353;51.386;7.028;2022-12-07T06:22:08;36.25;;;23.25;;
2686;SDS011;1353;51.386;7.028;2022-12-07T06:24:36;38.00;;;23.00;;
2686;SDS011;1353;51.386;7.028;2022-12-07T06:27:04;45.08;;;25.52;;
2686;SDS011;1353;51.386;7.028;2022-12-07T06:29:31;35.13;;;22.73;;
2686;SDS011;1353;51.386;7.028;2022-12-07T06:31:59;35.58;;;22.80;;
2686;SDS011;1353;51.386;7.028;2022-12-07T06:34:26;37.65;;;22.35;;
2686;SDS011;1353;51.386;7.028;2022-12-07T06:36:53;40.10;;;23.15;;
2686;SDS011;1353;51.386;7.028;2022-12-07T06:39:21;35.72;;;22.05;;
2686;SDS011;1353;51.386;7.028;2022-12-07T06:41:49;33.33;;;21.45;;
2686;SDS011;1353;51.386;7.028;2022-12-07T06:44:17;34.78;;;21.90;;
2686;SDS011;1353;51.386;7.028;2022-12-07T06:46:44;38.17;;;22.90;;
2686;SDS011;1353;51.386;7.028;2022-12-07T06:49:13;35.47;;;21.98;;
2686;SDS011;1353;51.386;7.028;2022-12-07T06:51:40;39.13;;;22.05;;
2686;SDS011;1353;51.386;7.028;2022-12-07T06:54:07;37.53;;;23.10;;
2686;SDS011;1353;51.386;7.028;2022-12-07T06:56:34;33.45;;;21.63;;
2686;SDS011;1353;51.386;7.028;2022-12-07T06:59:01;33.55;;;21.08;;
2686;SDS011;1353;51.386;7.028;2022-12-07T07:01:28;36.47;;;22.42;;
2686;SDS011;1353;51.386;7.028;2022-12-07T07:03:54;35.78;;;23.35;;
2686;SDS011;1353;51.386;7.028;2022-12-07T07:06:22;30.42;;;21.10;;
2686;SDS011;1353;51.386;7.028;2022-12-07T07:08:49;34.10;;;20.15;;
2686;SDS011;1353;51.386;7.028;2022-12-07T07:11:16;34.10;;;20.55;;
2686;SDS011;1353;51.386;7.028;2022-12-07T07:13:43;30.70;;;20.30;;
2686;SDS011;1353;51.386;7.028;2022-12-07T07:16:10;31.52;;;21.70;;
2686;SDS011;1353;51.386;7.028;2022-12-07T07:18:38;37.42;;;20.77;;
2686;SDS011;1353;51.386;7.028;2022-12-07T07:21:05;27.92;;;19.17;;
2686;SDS011;1353;51.386;7.028;2022-12-07T07:23:33;31.08;;;20.85;;
2686;SDS011;1353;51.386;7.028;2022-12-07T07:25:59;28.50;;;18.13;;
2686;SDS011;1353;51.386;7.028;2022-12-07T07:28:26;36.30;;;20.40;;
2686;SDS011;1353;51.386;7.028;2022-12-07T07:30:53;32.38;;;20.23;;
2686;SDS011;1353;51.386;7.028;2022-12-07T07:33:20;34.90;;;20.35;;
2686;SDS011;1353;51.386;7.028;2022-12-07T07:35:46;29.38;;;20.02;;
2686;SDS011;1353;51.386;7.028;2022-12-07T07:38:13;29.08;;;20.10;;
2686;SDS011;1353;51.386;7.028;2022-12-07T07:40:41;33.03;;;20.77;;
2686;SDS011;1353;51.386;7.028;2022-12-07T07:43:08;37.03;;;21.33;;
2686;SDS011;1353;51.386;7.028;2022-12-07T07:45:35;34.88;;;22.50;;
2686;SDS011;1353;51.386;7.028;2022-12-07T07:48:02;27.63;;;17.40;;
2686;SDS011;1353;51.386;7.028;2022-12-07T07:50:29;26.80;;;18.80;;
2686;SDS011;1353;51.386;7.028;2022-12-07T07:52:56;33.00;;;19.30;;
2686;SDS011;1353;51.386;7.028;2022-12-07T07:55:23;30.27;;;19.90;;
2686;SDS011;1353;51.386;7.028;2022-12-07T07:57:51;28.73;;;18.38;;
2686;SDS011;1353;51.386;7.028;2022-12-07T08:00:18;28.77;;;18.40;;
2686;SDS011;1353;51.386;7.028;2022-12-07T08:02:45;29.33;;;19.75;;
2686;SDS011;1353;51.386;7.028;2022-12-07T08:05:12;27.60;;;19.23;;
2686;SDS011;1353;51.386;7.028;2022-12-07T08:07:39;26.05;;;18.05;;
2686;SDS011;1353;51.386;7.028;2022-12-07T08:10:07;25.75;;;18.88;;
2686;SDS011;1353;51.386;7.028;2022-12-07T08:12:36;26.10;;;18.88;;
2686;SDS011;1353;51.386;7.028;2022-12-07T08:15:25;31.33;;;19.33;;
2686;SDS011;1353;51.386;7.028;2022-12-07T08:17:53;25.63;;;18.73;;
2686;SDS011;1353;51.386;7.028;2022-12-07T08:20:20;39.03;;;21.60;;
2686;SDS011;1353;51.386;7.028;2022-12-07T08:22:46;29.83;;;21.38;;
2686;SDS011;1353;51.386;7.028;2022-12-07T08:25:13;36.22;;;22.15;;
2686;SDS011;1353;51.386;7.028;2022-12-07T08:27:40;36.03;;;22.63;;
2686;SDS011;1353;51.386;7.028;2022-12-07T08:30:07;35.85;;;21.05;;
2686;SDS011;1353;51.386;7.028;2022-12-07T08:32:36;29.05;;;19.40;;
2686;SDS011;1353;51.386;7.028;2022-12-07T08:35:02;31.92;;;18.23;;
2686;SDS011;1353;51.386;7.028;2022-12-07T08:37:29;36.63;;;19.80;;
2686;SDS011;1353;51.386;7.028;2022-12-07T08:39:57;31.15;;;19.40;;
2686;SDS011;1353;51.386;7.028;2022-12-07T08:42:24;30.70;;;17.75;;
2686;SDS011;1353;51.386;7.028;2022-12-07T08:44:54;27.35;;;18.25;;
2686;SDS011;1353;51.386;7.028;2022-12-07T08:47:21;36.15;;;19.70;;
2686;SDS011;1353;51.386;7.028;2022-12-07T08:49:50;36.78;;;19.73;;
2686;SDS011;1353;51.386;7.028;2022-12-07T08:52:19;28.83;;;18.17;;
2686;SDS011;1353;51.386;7.028;2022-12-07T08:54:45;31.80;;;18.58;;
2686;SDS011;1353;51.386;7.028;2022-12-07T08:57:12;40.03;;;18.85;;
2686;SDS011;1353;51.386;7.028;2022-12-07T08:59:39;28.52;;;17.83;;
2686;SDS011;1353;51.386;7.028;2022-12-07T09:02:06;26.33;;;16.90;;
2686;SDS011;1353;51.386;7.028;2022-12-07T09:04:32;31.02;;;19.20;;
2686;SDS011;1353;51.386;7.028;2022-12-07T09:07:01;36.75;;;18.80;;
2686;SDS011;1353;51.386;7.028;2022-12-07T09:09:28;32.65;;;19.98;;
2686;SDS011;1353;51.386;7.028;2022-12-07T09:11:54;30.70;;;18.83;;
2686;SDS011;1353;51.386;7.028;2022-12-07T09:14:21;29.13;;;16.73;;
2686;SDS011;1353;51.386;7.028;2022-12-07T09:16:48;34.45;;;19.95;;
2686;SDS011;1353;51.386;7.028;2022-12-07T09:19:15;34.28;;;21.77;;
2686;SDS011;1353;51.386;7.028;2022-12-07T09:21:43;29.48;;;20.15;;
2686;SDS011;1353;51.386;7.028;2022-12-07T09:24:12;27.88;;;21.00;;
2686;SDS011;1353;51.386;7.028;2022-12-07T09:26:39;32.88;;;19.85;;
2686;SDS011;1353;51.386;7.028;2022-12-07T09:29:06;34.83;;;21.88;;
2686;SDS011;1353;51.386;7.028;2022-12-07T09:31:35;30.35;;;20.83;;
2686;SDS011;1353;51.386;7.028;2022-12-07T09:34:02;30.20;;;19.00;;
2686;SDS011;1353;51.386;7.028;2022-12-07T09:36:29;31.80;;;19.85;;
2686;SDS011;1353;51.386;7.028;2022-12-07T09:38:56;38.33;;;20.75;;
2686;SDS011;1353;51.386;7.028;2022-12-07T09:41:25;28.10;;;18.67;;
2686;SDS011;1353;51.386;7.028;2022-12-07T09:43:55;29.73;;;18.85;;
2686;SDS011;1353;51.386;7.028;2022-12-07T09:46:28;29.80;;;19.02;;
2686;SDS011;1353;51.386;7.028;2022-12-07T09:48:59;28.92;;;17.65;;
2686;SDS011;1353;51.386;7.028;2022-12-07T09:51:26;26.03;;;17.27;;
2686;SDS011;1353;51.386;7.028;2022-12-07T09:53:53;24.23;;;16.50;;
2686;SDS011;1353;51.386;7.028;2022-12-07T09:56:22;27.48;;;16.77;;
2686;SDS011;1353;51.386;7.028;2022-12-07T09:58:51;24.70;;;16.50;;
2686;SDS011;1353;51.386;7.028;2022-12-07T10:01:24;21.83;;;15.93;;
2686;SDS011;1353;51.386;7.028;2022-12-07T10:03:51;27.73;;;16.40;;
2686;SDS011;1353;51.386;7.028;2022-12-07T10:06:20;20.60;;;13.33;;
2686;SDS011;1353;51.386;7.028;2022-12-07T10:08:47;24.60;;;14.07;;
2686;SDS011;1353;51.386;7.028;2022-12-07T10:11:14;26.30;;;16.27;;
2686;SDS011;1353;51.386;7.028;2022-12-07T10:13:42;20.77;;;14.23;;
2686;SDS011;1353;51.386;7.028;2022-12-07T10:19:17;21.77;;;14.60;;
2686;SDS011;1353;51.386;7.028;2022-12-07T10:21:58;20.17;;;14.40;;
2686;SDS011;1353;51.386;7.028;2022-12-07T10:24:27;21.47;;;13.20;;
2686;SDS011;1353;51.386;7.028;2022-12-07T10:26:54;17.20;;;12.73;;
2686;SDS011;1353;51.386;7.028;2022-12-07T10:29:23;21.93;;;13.57;;
2686;SDS011;1353;51.386;7.028;2022-12-07T10:31:54;21.27;;;14.50;;
2686;SDS011;1353;51.386;7.028;2022-12-07T10:34:23;19.40;;;13.37;;
2686;SDS011;1353;51.386;7.028;2022-12-07T10:36:51;19.23;;;12.30;;
2686;SDS011;1353;51.386;7.028;2022-12-07T10:39:19;19.67;;;13.00;;
2686;SDS011;1353;51.386;7.028;2022-12-07T10:41:53;17.40;;;12.27;;
2686;SDS011;1353;51.386;7.028;2022-12-07T10:44:24;20.50;;;13.00;;
2686;SDS011;1353;51.386;7.028;2022-12-07T10:47:05;26.43;;;11.63;;
2686;SDS011;1353;51.386;7.028;2022-12-07T10:50:01;15.77;;;11.60;;
2686;SDS011;1353;51.386;7.028;2022-12-07T10:53:09;15.70;;;10.87;;
2686;SDS011;1353;51.386;7.028;2022-12-07T10:55:49;15.27;;;9.40;;
2686;SDS011;1353;51.386;7.028;2022-12-07T10:58:31;9.83;;;8.83;;
2686;SDS011;1353;51.386;7.028;2022-12-07T11:01:13;14.50;;;7.07;;
2686;SDS011;1353;51.386;7.028;2022-12-07T11:03:52;7.70;;;6.90;;
2686;SDS011;1353;51.386;7.028;2022-12-07T11:06:31;9.50;;;6.77;;
2686;SDS011;1353;51.386;7.028;2022-12-07T11:09:15;7.53;;;6.43;;
2686;SDS011;1353;51.386;7.028;2022-12-07T11:12:02;7.43;;;6.53;;
2686;SDS011;1353;51.386;7.028;2022-12-07T11:14:34;9.27;;;6.03;;
2686;SDS011;1353;51.386;7.028;2022-12-07T11:17:09;8.73;;;7.20;;
2686;SDS011;1353;51.386;7.028;2022-12-07T11:19:46;8.00;;;6.27;;
2686;SDS011;1353;51.386;7.028;2022-12-07T11:22:29;12.10;;;7.40;;
2686;SDS011;1353;51.386;7.028;2022-12-07T11:25:10;15.50;;;8.50;;
2686;SDS011;1353;51.386;7.028;2022-12-07T11:27:44;9.37;;;7.17;;
2686;SDS011;1353;51.386;7.028;2022-12-07T11:30:18;10.87;;;7.60;;
2686;SDS011;1353;51.386;7.028;2022-12-07T11:32:58;9.47;;;7.47;;
2686;SDS011;1353;51.386;7.028;2022-12-07T11:35:40;10.17;;;7.63;;
2686;SDS011;1353;51.386;7.028;2022-12-07T11:38:15;9.10;;;8.20;;
2686;SDS011;1353;51.386;7.028;2022-12-07T11:40:43;14.23;;;8.20;;
2686;SDS011;1353;51.386;7.028;2022-12-07T11:43:17;10.37;;;8.60;;
2686;SDS011;1353;51.386;7.028;2022-12-07T11:45:52;16.00;;;8.93;;
2686;SDS011;1353;51.386;7.028;2022-12-07T11:48:28;16.33;;;9.90;;
2686;SDS011;1353;51.386;7.028;2022-12-07T11:51:00;18.40;;;9.20;;
2686;SDS011;1353;51.386;7.028;2022-12-07T11:53:30;10.83;;;8.37;;
2686;SDS011;1353;51.386;7.028;2022-12-07T11:56:02;10.87;;;7.87;;
2686;SDS011;1353;51.386;7.028;2022-12-07T11:58:35;10.37;;;8.10;;
2686;SDS011;1353;51.386;7.028;2022-12-07T12:01:11;19.40;;;8.43;;
2686;SDS011;1353;51.386;7.028;2022-12-07T12:03:47;14.30;;;8.30;;
2686;SDS011;1353;51.386;7.028;2022-12-07T12:06:16;12.50;;;7.47;;
2686;SDS011;1353;51.386;7.028;2022-12-07T12:08:43;12.73;;;8.00;;
2686;SDS011;1353;51.386;7.028;2022-12-07T12:11:19;11.77;;;7.83;;
2686;SDS011;1353;51.386;7.028;2022-12-07T12:17:07;8.87;;;6.60;;
2686;SDS011;1353;51.386;7.028;2022-12-07T12:19:57;8.13;;;5.90;;
2686;SDS011;1353;51.386;7.028;2022-12-07T12:22:28;5.70;;;5.17;;
2686;SDS011;1353;51.386;7.028;2022-12-07T12:25:02;12.23;;;5.17;;
2686;SDS011;1353;51.386;7.028;2022-12-07T12:27:34;8.00;;;5.40;;
2686;SDS011;1353;51.386;7.028;2022-12-07T12:30:04;6.80;;;5.17;;
2686;SDS011;1353;51.386;7.028;2022-12-07T12:32:36;8.17;;;5.10;;
2686;SDS011;1353;51.386;7.028;2022-12-07T12:35:26;8.03;;;4.83;;
2686;SDS011;1353;51.386;7.028;2022-12-07T12:37:57;10.10;;;4.47;;
2686;SDS011;1353;51.386;7.028;2022-12-07T12:40:55;7.63;;;4.40;;
2686;SDS011;1353;51.386;7.028;2022-12-07T12:43:41;8.03;;;4.60;;
2686;SDS011;1353;51.386;7.028;2022-12-07T12:46:37;8.63;;;4.00;;
2686;SDS011;1353;51.386;7.028;2022-12-07T12:58:38;6.63;;;3.90;;
2686;SDS011;1353;51.386;7.028;2022-12-07T13:04:17;11.00;;;4.50;;
2686;SDS011;1353;51.386;7.028;2022-12-07T13:06:52;6.53;;;4.00;;
2686;SDS011;1353;51.386;7.028;2022-12-07T13:09:21;9.30;;;5.20;;
2686;SDS011;1353;51.386;7.028;2022-12-07T13:11:56;7.93;;;4.30;;
2686;SDS011;1353;51.386;7.028;2022-12-07T13:14:51;4.77;;;3.87;;
2686;SDS011;1353;51.386;7.028;2022-12-07T13:20:46;7.97;;;4.10;;
2686;SDS011;1353;51.386;7.028;2022-12-07T13:23:24;11.23;;;4.47;;
2686;SDS011;1353;51.386;7.028;2022-12-07T13:25:59;5.40;;;4.20;;
2686;SDS011;1353;51.386;7.028;2022-12-07T13:28:36;8.43;;;4.53;;
2686;SDS011;1353;51.386;7.028;2022-12-07T13:33:58;7.80;;;4.87;;
2686;SDS011;1353;51.386;7.028;2022-12-07T13:36:26;5.77;;;4.40;;
2686;SDS011;1353;51.386;7.028;2022-12-07T13:38:57;7.77;;;4.30;;
2686;SDS011;1353;51.386;7.028;2022-12-07T13:41:25;5.00;;;4.00;;
2686;SDS011;1353;51.386;7.028;2022-12-07T13:43:59;4.77;;;3.90;;
2686;SDS011;1353;51.386;7.028;2022-12-07T13:46:31;4.57;;;2.93;;
2686;SDS011;1353;51.386;7.028;2022-12-07T13:49:13;9.60;;;3.43;;
2686;SDS011;1353;51.386;7.028;2022-12-07T13:51:44;5.07;;;3.40;;
2686;SDS011;1353;51.386;7.028;2022-12-07T13:54:12;5.60;;;3.50;;
2686;SDS011;1353;51.386;7.028;2022-12-07T13:56:39;4.27;;;3.40;;
2686;SDS011;1353;51.386;7.028;2022-12-07T13:59:10;7.17;;;3.20;;
2686;SDS011;1353;51.386;7.028;2022-12-07T14:01:40;4.15;;;2.65;;
2686;SDS011;1353;51.386;7.028;2022-12-07T14:07:00;3.63;;;3.03;;
2686;SDS011;1353;51.386;7.028;2022-12-07T14:09:52;5.60;;;3.00;;
2686;SDS011;1353;51.386;7.028;2022-12-07T14:12:20;4.88;;;3.65;;
2686;SDS011;1353;51.386;7.028;2022-12-07T14:14:48;6.40;;;4.40;;
2686;SDS011;1353;51.386;7.028;2022-12-07T14:17:16;6.15;;;4.00;;
2686;SDS011;1353;51.386;7.028;2022-12-07T14:19:46;7.35;;;3.10;;
2686;SDS011;1353;51.386;7.028;2022-12-07T14:22:26;3.47;;;3.17;;
2686;SDS011;1353;51.386;7.028;2022-12-07T14:27:47;12.07;;;3.85;;
2686;SDS011;1353;51.386;7.028;2022-12-07T14:30:18;5.57;;;4.40;;
2686;SDS011;1353;51.386;7.028;2022-12-07T14:32:45;5.65;;;4.45;;
2686;SDS011;1353;51.386;7.028;2022-12-07T14:35:15;6.57;;;3.55;;
2686;SDS011;1353;51.386;7.028;2022-12-07T14:37:46;5.70;;;4.25;;
2686;SDS011;1353;51.386;7.028;2022-12-07T14:40:16;4.65;;;4.00;;
2686;SDS011;1353;51.386;7.028;2022-12-07T14:42:44;13.60;;;4.45;;
2686;SDS011;1353;51.386;7.028;2022-12-07T14:45:14;6.32;;;4.90;;
2686;SDS011;1353;51.386;7.028;2022-12-07T14:47:43;12.30;;;4.70;;
2686;SDS011;1353;51.386;7.028;2022-12-07T14:50:11;7.35;;;4.82;;
2686;SDS011;1353;51.386;7.028;2022-12-07T14:52:39;8.05;;;4.65;;
2686;SDS011;1353;51.386;7.028;2022-12-07T14:55:12;7.22;;;5.05;;
2686;SDS011;1353;51.386;7.028;2022-12-07T14:57:40;4.80;;;4.15;;
2686;SDS011;1353;51.386;7.028;2022-12-07T15:00:08;7.30;;;4.97;;
2686;SDS011;1353;51.386;7.028;2022-12-07T15:02:39;6.22;;;4.53;;
2686;SDS011;1353;51.386;7.028;2022-12-07T15:05:07;6.97;;;5.07;;
2686;SDS011;1353;51.386;7.028;2022-12-07T15:07:34;6.65;;;4.20;;
2686;SDS011;1353;51.386;7.028;2022-12-07T15:10:01;6.10;;;5.13;;
2686;SDS011;1353;51.386;7.028;2022-12-07T15:12:28;6.03;;;4.45;;
2686;SDS011;1353;51.386;7.028;2022-12-07T15:14:55;6.85;;;4.63;;
2686;SDS011;1353;51.386;7.028;2022-12-07T15:17:22;12.50;;;4.80;;
2686;SDS011;1353;51.386;7.028;2022-12-07T15:19:48;13.57;;;5.05;;
2686;SDS011;1353;51.386;7.028;2022-12-07T15:22:16;7.28;;;4.60;;
2686;SDS011;1353;51.386;7.028;2022-12-07T15:24:43;9.93;;;5.53;;
2686;SDS011;1353;51.386;7.028;2022-12-07T15:27:10;9.10;;;5.00;;
2686;SDS011;1353;51.386;7.028;2022-12-07T15:29:37;14.73;;;6.25;;
2686;SDS011;1353;51.386;7.028;2022-12-07T15:32:03;11.88;;;5.57;;
2686;SDS011;1353;51.386;7.028;2022-12-07T15:34:30;6.20;;;4.80;;
2686;SDS011;1353;51.386;7.028;2022-12-07T15:36:57;6.32;;;5.10;;
2686;SDS011;1353;51.386;7.028;2022-12-07T15:39:25;8.90;;;6.15;;
2686;SDS011;1353;51.386;7.028;2022-12-07T15:41:52;12.48;;;5.32;;
2686;SDS011;1353;51.386;7.028;2022-12-07T15:44:19;9.88;;;5.55;;
2686;SDS011;1353;51.386;7.028;2022-12-07T15:47:03;8.63;;;6.53;;